Time;durP1;ratioP1;P1;durP2;ratioP2;P2;SDS_P1;SDS_P2;PMS_P1;PMS_P2;Temp;Humidity;BMP_temperature;BMP_pressure;BME280_temperature;BME280_humidity;BME280_pressure;Samples;Min_cycle;Max_cycle;Signal;HPM_P1;HPM_P2
2022/06/02 00:00:14;;;;;;;6.97;4.78;;;;;;;20.72;53.02;95074.19;4952164;28;20346;-68
2022/06/02 00:02:45;;;;;;;7.18;4.28;;;;;;;20.74;52.72;95061.41;4962817;28;20235;-66
2022/06/02 00:05:14;;;;;;;9.10;4.72;;;;;;;20.72;52.85;95068.84;4948687;28;20224;-66
2022/06/02 00:07:57;;;;;;;5.68;3.90;;;;;;;20.67;53.56;95074.00;4947275;28;20239;-67
2022/06/02 00:10:39;;;;;;;8.90;4.35;;;;;;;20.70;53.41;95076.25;4950444;28;20227;-63
2022/06/02 00:13:22;;;;;;;5.85;4.32;;;;;;;20.53;53.83;95075.88;4957415;28;20307;-66
2022/06/02 00:15:53;;;;;;;7.40;3.95;;;;;;;20.45;54.21;95068.94;4946598;28;20224;-68
2022/06/02 00:18:40;;;;;;;7.60;4.28;;;;;;;20.36;54.55;95075.53;4927749;28;20232;-66
2022/06/02 00:21:25;;;;;;;6.93;4.60;;;;;;;20.42;54.34;95069.34;4946608;28;20248;-66
2022/06/02 00:24:37;;;;;;;4.97;3.75;;;;;;;20.30;54.89;95068.38;4943265;28;20408;-63
2022/06/02 00:27:27;;;;;;;5.80;4.00;;;;;;;20.32;54.65;95068.97;4963628;28;20236;-67
2022/06/02 00:29:58;;;;;;;4.22;3.45;;;;;;;20.28;54.13;95068.56;5004420;28;20253;-62
2022/06/02 00:32:34;;;;;;;5.35;3.85;;;;;;;20.31;53.89;95066.50;5006012;28;20304;-68
2022/06/02 00:35:19;;;;;;;4.55;4.05;;;;;;;20.22;54.38;95063.25;5022453;28;20317;-65
2022/06/02 00:38:13;;;;;;;5.93;3.70;;;;;;;20.35;54.41;95063.22;5016184;28;20237;-68
2022/06/02 00:40:39;;;;;;;5.90;3.45;;;;;;;20.26;54.42;95056.44;5020676;28;20201;-65
2022/06/02 00:43:25;;;;;;;6.82;4.38;;;;;;;20.32;54.58;95062.81;5008564;28;20233;-68
2022/06/02 00:46:10;;;;;;;5.65;3.88;;;;;;;20.19;55.14;95064.50;5025468;28;20233;-66
2022/06/02 00:48:56;;;;;;;5.85;4.22;;;;;;;20.04;55.48;95061.25;5000253;28;20233;-63
2022/06/02 00:51:39;;;;;;;5.18;3.60;;;;;;;19.95;55.97;95065.19;5013596;28;20380;-66
2022/06/02 00:57:31;;;;;;;5.55;3.97;;;;;;;19.65;57.98;95060.28;5022851;28;20260;-66
2022/06/02 01:00:14;;;;;;;9.40;4.72;;;;;;;19.62;58.43;95058.03;5004789;28;20229;-61
2022/06/02 01:03:07;;;;;;;9.15;4.82;;;;;;;20.11;57.23;95059.38;5015834;28;20231;-66
2022/06/02 01:06:14;;;;;;;8.60;4.50;;;;;;;20.24;56.87;95061.19;5012756;28;20249;-65
2022/06/02 01:08:58;;;;;;;5.82;4.40;;;;;;;20.17;56.49;95066.53;4976041;28;20293;-67
2022/06/02 01:11:35;;;;;;;7.22;3.75;;;;;;;19.63;58.61;95067.66;4983672;28;20223;-68
2022/06/02 01:14:03;;;;;;;4.00;3.67;;;;;;;19.81;57.99;95070.53;4984601;28;20741;-65
2022/06/02 01:16:51;;;;;;;5.25;4.75;;;;;;;19.76;58.08;95070.34;4971538;28;20250;-63
2022/06/02 01:19:44;;;;;;;5.75;4.03;;;;;;;19.74;57.82;95067.06;4987677;28;20211;-68
2022/06/02 01:22:37;;;;;;;4.30;3.90;;;;;;;19.58;58.09;95064.78;4986993;28;20296;-66
2022/06/02 01:25:21;;;;;;;8.25;4.07;;;;;;;19.52;58.46;95066.44;4989682;28;20769;-65
2022/06/02 01:27:52;;;;;;;8.65;4.20;;;;;;;19.60;57.77;95057.41;4964112;28;20224;-65
2022/06/02 01:30:17;;;;;;;7.55;4.25;;;;;;;19.48;58.27;95061.72;4984910;28;20265;-65
2022/06/02 01:32:53;;;;;;;6.75;4.07;;;;;;;19.36;58.40;95066.84;4986285;28;20227;-66
2022/06/02 01:35:26;;;;;;;6.15;3.78;;;;;;;19.34;58.38;95060.88;4970191;28;20277;-66
2022/06/02 01:38:15;;;;;;;5.25;4.03;;;;;;;19.26;58.16;95058.44;4965212;28;20254;-62
2022/06/02 01:41:06;;;;;;;5.15;3.63;;;;;;;19.33;57.84;95067.25;4972108;28;20221;-65
2022/06/02 01:43:35;;;;;;;7.85;3.30;;;;;;;19.46;56.85;95067.25;4946057;28;20227;-66
2022/06/02 01:46:06;;;;;;;4.47;3.45;;;;;;;19.40;57.42;95060.06;4949730;28;20259;-68
2022/06/02 01:49:03;;;;;;;5.97;4.30;;;;;;;19.49;58.03;95058.84;4945525;28;20232;-61
2022/06/02 01:51:43;;;;;;;5.40;4.55;;;;;;;19.49;58.23;95066.84;4948580;28;20236;-67
2022/06/02 01:54:32;;;;;;;4.32;3.58;;;;;;;19.40;58.09;95060.06;4946896;28;20232;-62
2022/06/02 01:57:16;;;;;;;4.70;3.45;;;;;;;19.32;58.30;95069.06;4933099;28;20255;-67
2022/06/02 02:00:00;;;;;;;6.60;3.88;;;;;;;19.43;58.76;95058.84;4956768;28;20288;-66
2022/06/02 02:02:37;;;;;;;5.00;4.25;;;;;;;19.50;58.73;95057.00;4950642;28;20228;-66
2022/06/02 02:05:23;;;;;;;6.57;3.78;;;;;;;19.17;59.07;95055.97;4944564;28;20259;-66
2022/06/02 02:08:13;;;;;;;4.72;3.83;;;;;;;19.20;59.28;95060.06;4947301;28;20244;-65
2022/06/02 02:11:03;;;;;;;7.22;4.30;;;;;;;19.02;60.26;95055.31;4946787;28;20209;-66
2022/06/02 02:13:38;;;;;;;7.90;4.30;;;;;;;19.06;59.95;95053.06;4949256;28;20251;-66
2022/06/02 02:16:12;;;;;;;7.90;4.68;;;;;;;18.95;59.79;95055.34;4952749;28;20208;-68
2022/06/02 02:18:37;;;;;;;8.10;4.25;;;;;;;18.82;60.45;95054.47;4949427;28;20336;-66
2022/06/02 02:21:05;;;;;;;7.35;4.18;;;;;;;18.84;60.48;95058.56;4992367;28;20262;-63
2022/06/02 02:24:14;;;;;;;6.97;4.45;;;;;;;19.05;59.91;95057.59;5011689;28;20230;-66
2022/06/02 02:27:05;;;;;;;8.20;4.07;;;;;;;19.07;59.17;95049.41;4978002;28;20227;-66
2022/06/02 02:29:33;;;;;;;7.80;4.18;;;;;;;18.92;59.47;95053.06;4980853;28;20681;-62
2022/06/02 02:32:19;;;;;;;8.48;4.22;;;;;;;18.77;59.57;95059.59;4983129;28;20263;-66
2022/06/02 02:35:05;;;;;;;9.07;4.30;;;;;;;18.85;59.36;95057.56;4967092;28;20278;-65
2022/06/02 02:37:37;;;;;;;9.32;4.22;;;;;;;18.92;59.29;95054.91;4987507;28;20222;-63
2022/06/02 02:40:10;;;;;;;5.18;3.50;;;;;;;18.72;59.71;95055.66;4983674;28;20218;-62
2022/06/02 02:42:51;;;;;;;5.82;4.10;;;;;;;18.92;59.07;95057.56;4992987;28;20294;-66
2022/06/02 02:45:25;;;;;;;9.50;4.20;;;;;;;18.82;59.31;95057.13;4975952;28;20392;-66
2022/06/02 02:47:57;;;;;;;6.88;3.85;;;;;;;18.74;59.51;95055.47;4979679;28;20260;-67
2022/06/02 02:50:35;;;;;;;5.45;3.55;;;;;;;18.69;59.76;95052.59;4975378;28;20231;-62
2022/06/02 02:53:06;;;;;;;6.93;4.03;;;;;;;18.80;59.73;95061.84;4992880;28;20227;-66
2022/06/02 02:55:37;;;;;;;6.78;4.18;;;;;;;18.93;59.61;95061.88;4982334;28;20200;-66
2022/06/02 02:58:15;;;;;;;7.20;4.07;;;;;;;18.98;59.72;95062.09;4980201;28;20203;-67
2022/06/02 03:01:11;;;;;;;8.35;4.45;;;;;;;18.85;60.42;95070.06;4990531;28;20246;-62
2022/06/02 03:03:43;;;;;;;7.28;4.13;;;;;;;18.40;61.86;95062.50;4991914;28;20230;-66
2022/06/02 03:06:32;;;;;;;5.30;4.72;;;;;;;18.42;62.39;95084.44;5018776;28;20302;-63
2022/06/02 03:09:24;;;;;;;10.63;5.13;;;;;;;18.74;61.36;95087.44;5037429;28;20238;-65
2022/06/02 03:12:00;;;;;;;7.60;4.70;;;;;;;18.80;61.09;95078.66;4999014;28;20237;-66
2022/06/02 03:14:48;;;;;;;7.80;5.10;;;;;;;18.62;62.16;95079.19;4996073;28;20233;-63
2022/06/02 03:17:13;;;;;;;7.95;5.18;;;;;;;18.68;62.08;95078.41;5014852;28;20219;-62
2022/06/02 03:20:15;;;;;;;5.63;4.75;;;;;;;18.69;62.25;95079.22;5006137;28;20233;-67
2022/06/02 03:23:01;;;;;;;6.57;5.40;;;;;;;18.92;61.75;95079.72;4988997;28;20229;-66
2022/06/02 03:25:41;;;;;;;6.20;5.60;;;;;;;18.98;61.75;95080.75;5002349;28;20314;-64
2022/06/02 03:28:21;;;;;;;7.05;5.85;;;;;;;18.90;61.93;95087.09;4988561;28;20250;-65
2022/06/02 03:30:58;;;;;;;7.25;5.97;;;;;;;18.83;62.24;95080.91;4978245;28;20237;-66
2022/06/02 03:33:41;;;;;;;9.65;5.57;;;;;;;18.75;62.82;95085.59;5002465;28;20233;-61
2022/06/02 03:36:18;;;;;;;11.13;6.07;;;;;;;18.73;63.25;95085.75;5002290;28;20227;-66
2022/06/02 03:38:55;;;;;;;7.47;5.50;;;;;;;18.65;63.47;95075.28;4998677;28;20256;-65
2022/06/02 03:42:20;;;;;;;7.40;5.40;;;;;;;18.64;63.73;95081.66;5005052;28;20230;-63
2022/06/02 03:45:02;;;;;;;5.65;5.03;;;;;;;18.62;64.22;95083.69;4927065;29;20280;-63
2022/06/02 03:47:50;;;;;;;8.43;5.80;;;;;;;18.57;64.19;95089.59;4912396;29;20257;-65
2022/06/02 03:50:33;;;;;;;10.68;6.43;;;;;;;18.67;64.23;95081.25;4906542;29;20229;-68
2022/06/02 03:53:22;;;;;;;8.20;6.00;;;;;;;18.79;63.72;95079.69;4926047;29;20348;-66
2022/06/02 03:55:56;;;;;;;7.65;6.10;;;;;;;18.95;62.85;95081.97;4896961;29;20301;-66
2022/06/02 03:58:37;;;;;;;7.00;6.30;;;;;;;19.06;62.37;95083.22;4900205;29;20241;-66
2022/06/02 04:01:07;;;;;;;8.77;6.50;;;;;;;19.06;61.76;95069.06;4928964;29;20308;-67
2022/06/02 04:03:42;;;;;;;9.90;6.07;;;;;;;19.13;61.24;95075.22;4909739;28;20247;-66
2022/06/02 04:06:26;;;;;;;7.38;6.05;;;;;;;19.03;61.48;95075.66;4907467;29;20241;-66
2022/06/02 04:09:29;;;;;;;8.50;5.95;;;;;;;19.00;62.30;95080.53;4897349;29;20241;-66
2022/06/02 04:15:27;;;;;;;8.35;6.30;;;;;;;19.25;61.90;95070.13;4905661;29;20268;-62
2022/06/02 04:18:02;;;;;;;9.05;6.50;;;;;;;19.33;61.53;95073.41;4935921;28;20268;-67
2022/06/02 04:20:36;;;;;;;8.98;5.80;;;;;;;19.43;60.93;95080.16;4987398;28;20227;-61
2022/06/02 04:23:29;;;;;;;7.20;6.22;;;;;;;19.41;60.92;95063.56;4971809;28;20222;-65
2022/06/02 04:26:31;;;;;;;11.07;6.40;;;;;;;19.46;61.04;95066.41;4965767;28;20230;-62
2022/06/02 04:29:03;;;;;;;8.35;6.75;;;;;;;19.40;61.39;95068.06;4966665;28;20235;-66
2022/06/02 04:32:02;;;;;;;9.40;6.78;;;;;;;19.36;61.49;95078.31;4969810;28;20213;-65
2022/06/02 04:34:46;;;;;;;10.30;6.38;;;;;;;19.41;60.61;95079.56;5039600;28;20297;-67
2022/06/02 04:37:36;;;;;;;7.78;6.70;;;;;;;19.32;61.36;95087.75;5040910;28;20187;-64
2022/06/02 04:40:24;;;;;;;7.75;6.93;;;;;;;19.40;61.47;95084.06;5002128;28;20522;-65
2022/06/02 04:43:06;;;;;;;9.27;5.68;;;;;;;19.52;61.12;95085.09;5038105;28;20218;-63
2022/06/02 04:45:32;;;;;;;8.43;6.57;;;;;;;19.54;60.41;95096.38;5039343;28;20245;-63
2022/06/02 04:48:16;;;;;;;10.52;7.22;;;;;;;19.53;60.67;95083.25;5041211;28;20238;-65
2022/06/02 04:50:49;;;;;;;8.00;7.20;;;;;;;19.27;61.44;95086.72;4999506;28;20231;-63
2022/06/02 04:53:38;;;;;;;12.38;7.20;;;;;;;19.39;62.64;95090.44;5009844;28;20310;-67
2022/06/02 04:56:16;;;;;;;10.85;7.57;;;;;;;19.53;60.98;95099.25;5028906;28;20225;-66
2022/06/02 04:58:59;;;;;;;10.85;7.43;;;;;;;19.69;60.88;95090.03;5013515;28;20292;-63
2022/06/02 05:02:05;;;;;;;10.32;7.88;;;;;;;19.77;60.43;95087.16;5026249;28;20203;-65
2022/06/02 05:04:53;;;;;;;10.82;7.53;;;;;;;19.83;60.46;95095.19;4984773;28;20226;-66
2022/06/02 05:07:46;;;;;;;11.88;7.82;;;;;;;19.90;60.76;95099.66;4989412;28;20318;-65
2022/06/02 05:10:34;;;;;;;9.30;8.13;;;;;;;19.89;60.70;95096.19;4989115;28;20226;-63
2022/06/02 05:13:20;;;;;;;8.55;7.57;;;;;;;19.98;60.80;95088.78;5009078;28;20320;-64
2022/06/02 05:15:45;;;;;;;12.52;8.05;;;;;;;19.95;60.44;95089.19;5005085;28;20317;-62
2022/06/02 05:18:37;;;;;;;9.13;7.75;;;;;;;20.02;60.54;95095.31;4998463;28;20313;-66
2022/06/02 05:21:33;;;;;;;11.38;8.15;;;;;;;19.93;61.01;95099.25;5005853;28;20243;-64
2022/06/02 05:24:01;;;;;;;11.07;7.53;;;;;;;20.04;60.47;95094.09;5004862;28;20288;-65
2022/06/02 05:26:57;;;;;;;9.32;7.50;;;;;;;20.10;60.35;95086.28;4985940;28;20280;-65
2022/06/02 05:29:41;;;;;;;8.48;7.38;;;;;;;20.15;59.88;95086.47;5008492;28;20229;-66
2022/06/02 05:32:22;;;;;;;12.77;7.22;;;;;;;20.28;59.76;95089.09;5007210;28;20260;-64
2022/06/02 05:35:02;;;;;;;7.13;6.43;;;;;;;20.37;59.91;95095.88;5004961;28;20249;-67
2022/06/02 05:37:44;;;;;;;7.95;6.68;;;;;;;20.45;58.56;95100.97;5004263;28;20207;-66
2022/06/02 05:40:27;;;;;;;9.70;7.20;;;;;;;20.54;58.27;95104.25;4993853;28;20207;-67
2022/06/02 05:43:26;;;;;;;8.48;7.57;;;;;;;20.54;58.84;95104.25;5009476;28;20293;-67
2022/06/02 05:46:17;;;;;;;12.48;7.82;;;;;;;20.64;59.00;95103.81;5023406;28;20230;-66
2022/06/02 05:49:07;;;;;;;10.73;7.95;;;;;;;20.69;59.32;95104.81;4993112;28;20315;-66
2022/06/02 05:51:44;;;;;;;10.55;8.13;;;;;;;20.67;59.43;95106.88;4985935;28;20253;-70
2022/06/02 05:54:38;;;;;;;10.55;8.38;;;;;;;20.80;59.00;95100.66;5011172;28;20230;-68
2022/06/02 05:57:26;;;;;;;11.75;8.52;;;;;;;20.85;58.69;95105.34;4991438;28;20218;-62
2022/06/02 06:00:13;;;;;;;11.30;8.75;;;;;;;20.88;58.62;95104.94;4986993;28;20230;-68
2022/06/02 06:03:15;;;;;;;9.70;8.63;;;;;;;20.91;58.46;95107.19;5006162;28;20219;-64
2022/06/02 06:05:47;;;;;;;15.93;8.90;;;;;;;21.01;58.11;95101.34;4994681;28;20241;-66
2022/06/02 06:08:21;;;;;;;13.77;9.75;;;;;;;21.04;58.38;95100.94;5009155;28;20264;-67
2022/06/02 06:10:58;;;;;;;15.27;8.93;;;;;;;21.15;58.19;95101.06;4993435;28;20227;-66
2022/06/02 06:13:52;;;;;;;11.65;7.70;;;;;;;21.22;57.39;95100.19;4997386;28;20220;-67
2022/06/02 06:16:23;;;;;;;10.32;8.88;;;;;;;21.11;57.37;95101.72;4990317;28;20212;-64
2022/06/02 06:19:15;;;;;;;16.15;10.10;;;;;;;21.15;56.40;95095.72;5012786;28;20324;-68
2022/06/02 06:21:56;;;;;;;13.35;8.43;;;;;;;21.31;56.24;95096.25;4993833;28;20227;-68
2022/06/02 06:24:40;;;;;;;14.43;8.63;;;;;;;21.31;55.56;95098.91;4993924;28;20288;-67
2022/06/02 06:27:40;;;;;;;11.88;8.55;;;;;;;21.28;56.01;95100.16;5014347;28;20312;-67
2022/06/02 06:30:24;;;;;;;14.35;8.35;;;;;;;21.35;55.32;95095.56;5008342;28;20297;-62
2022/06/02 06:32:58;;;;;;;13.00;8.68;;;;;;;21.27;55.73;95095.03;4997960;28;20252;-63
2022/06/02 06:35:49;;;;;;;12.05;9.35;;;;;;;21.36;55.97;95094.56;5005425;28;20234;-66
2022/06/02 06:38:46;;;;;;;13.93;9.48;;;;;;;21.40;55.55;95099.50;5020483;28;20289;-62
2022/06/02 06:41:34;;;;;;;8.48;7.05;;;;;;;21.45;55.11;95099.66;4993796;28;20396;-64
2022/06/02 06:44:45;;;;;;;9.55;7.05;;;;;;;21.55;54.68;95092.78;4933201;28;20221;-64
2022/06/02 06:47:19;;;;;;;10.20;6.75;;;;;;;21.60;55.85;95089.47;4936127;29;20224;-64
2022/06/02 06:50:02;;;;;;;11.15;7.15;;;;;;;21.72;54.94;95089.56;4938675;29;20232;-68
2022/06/02 06:53:15;;;;;;;7.22;6.53;;;;;;;21.69;55.18;95090.00;4935103;28;20239;-64
2022/06/02 06:55:54;;;;;;;7.25;6.35;;;;;;;21.77;53.81;95085.19;4955442;28;20217;-62
2022/06/02 06:58:35;;;;;;;7.40;6.05;;;;;;;21.93;53.34;95083.00;4930449;29;20260;-66
2022/06/02 07:01:15;;;;;;;9.15;6.05;;;;;;;22.02;53.28;95089.69;4931258;28;20369;-66
2022/06/02 07:03:46;;;;;;;9.43;5.90;;;;;;;21.93;53.24;95089.16;4933053;28;20372;-67
2022/06/02 07:06:21;;;;;;;9.82;5.95;;;;;;;22.11;53.12;95088.38;4950983;28;20237;-65
2022/06/02 07:09:00;;;;;;;8.55;5.70;;;;;;;22.12;52.10;95089.19;4932314;28;20264;-66
2022/06/02 07:14:52;;;;;;;11.63;5.53;;;;;;;22.10;54.35;95093.94;4959005;28;20306;-64
2022/06/02 07:17:32;;;;;;;10.55;5.72;;;;;;;22.31;53.19;95082.03;4936060;29;20227;-67
2022/06/02 07:20:46;;;;;;;8.95;5.00;;;;;;;22.25;53.43;95078.38;4938449;28;20267;-67
2022/06/02 07:23:36;;;;;;;6.47;5.40;;;;;;;22.42;51.88;95086.63;5007545;28;20248;-65
2022/06/02 07:26:28;;;;;;;6.43;4.97;;;;;;;22.49;52.12;95091.91;4994069;28;20301;-68
2022/06/02 07:29:34;;;;;;;7.75;6.00;;;;;;;22.51;52.49;95092.50;5012940;28;20261;-65
2022/06/02 07:32:06;;;;;;;9.05;5.07;;;;;;;22.51;52.33;95087.13;4993101;28;20270;-68
2022/06/02 07:34:52;;;;;;;7.93;5.25;;;;;;;22.51;52.86;95097.84;4979262;28;20246;-68
2022/06/02 07:37:40;;;;;;;7.47;4.55;;;;;;;22.51;51.85;95089.81;4991068;28;20222;-67
2022/06/02 07:40:20;;;;;;;8.98;5.57;;;;;;;22.72;50.24;95091.22;4992666;28;20238;-64
2022/06/02 07:43:21;;;;;;;8.98;5.05;;;;;;;22.70;51.24;95086.09;4971524;28;20246;-62
2022/06/02 07:45:59;;;;;;;6.85;5.40;;;;;;;22.75;52.04;95088.06;4941273;28;20320;-66
2022/06/02 07:48:42;;;;;;;8.00;5.32;;;;;;;22.83;52.17;95087.78;4936225;29;20231;-64
2022/06/02 07:51:41;;;;;;;6.25;5.10;;;;;;;23.05;50.12;95082.78;4928406;29;20228;-65
2022/06/02 07:54:32;;;;;;;10.23;6.03;;;;;;;23.09;50.27;95089.31;4929873;29;20308;-68
2022/06/02 07:57:10;;;;;;;10.48;5.85;;;;;;;23.13;50.38;95089.69;4918116;29;20557;-67
2022/06/02 07:59:54;;;;;;;11.85;5.97;;;;;;;23.20;50.61;95091.22;4887271;29;20265;-64
2022/06/02 08:02:58;;;;;;;9.65;5.55;;;;;;;23.20;49.58;95091.22;4909490;29;20218;-68
2022/06/02 08:05:41;;;;;;;8.55;4.97;;;;;;;23.25;50.26;95083.28;4909658;29;20280;-67
2022/06/02 08:08:39;;;;;;;9.43;5.20;;;;;;;23.33;49.20;95090.19;4913010;29;20237;-67
2022/06/02 08:11:41;;;;;;;9.45;5.35;;;;;;;23.43;49.92;95090.47;4925714;29;20233;-65
2022/06/02 08:14:18;;;;;;;5.85;4.32;;;;;;;23.26;49.72;95086.81;4915668;29;20355;-67
2022/06/02 08:16:56;;;;;;;11.02;5.25;;;;;;;23.39;48.56;95085.78;4904287;29;20250;-67
2022/06/02 08:19:53;;;;;;;5.30;4.25;;;;;;;23.52;49.61;95089.09;4924930;29;20236;-67
2022/06/02 08:22:29;;;;;;;5.95;4.40;;;;;;;23.67;47.93;95087.81;4965407;28;20238;-67
2022/06/02 08:25:11;;;;;;;7.93;4.05;;;;;;;23.68;47.92;95087.59;4987391;28;20230;-67
2022/06/02 08:28:00;;;;;;;14.50;4.30;;;;;;;23.75;48.80;95077.59;4984111;28;20227;-64
2022/06/02 08:30:40;;;;;;;5.60;3.88;;;;;;;23.81;49.47;95080.38;4980332;28;20235;-67
2022/06/02 08:33:17;;;;;;;7.82;4.28;;;;;;;23.90;47.83;95079.00;4986157;28;20247;-68
2022/06/02 08:36:10;;;;;;;8.23;4.97;;;;;;;24.06;46.79;95077.47;4975668;28;20238;-63
2022/06/02 08:39:00;;;;;;;8.45;4.28;;;;;;;24.10;46.28;95079.44;4988502;28;20421;-66
2022/06/02 08:41:44;;;;;;;5.38;4.50;;;;;;;24.05;46.50;95083.91;4989195;28;20287;-68
2022/06/02 08:44:38;;;;;;;6.18;4.13;;;;;;;23.99;46.16;95077.59;5002274;28;20219;-62
2022/06/02 08:47:12;;;;;;;6.15;4.00;;;;;;;24.24;44.74;95080.03;5008413;28;20242;-63
2022/06/02 08:50:15;;;;;;;7.13;3.63;;;;;;;24.32;43.83;95076.16;5036393;28;20252;-70
2022/06/02 08:53:15;;;;;;;6.25;3.60;;;;;;;24.35;42.46;95078.38;5012845;28;20268;-66
2022/06/02 08:56:01;;;;;;;4.03;3.40;;;;;;;24.39;42.15;95074.97;5003660;28;20294;-62
2022/06/02 08:58:55;;;;;;;5.47;3.47;;;;;;;24.36;43.52;95080.84;5008359;28;20210;-68
2022/06/02 09:01:29;;;;;;;4.32;3.60;;;;;;;24.23;44.92;95085.66;5006463;28;20222;-66
2022/06/02 09:04:16;;;;;;;5.30;3.50;;;;;;;24.46;42.45;95077.59;5042691;28;20229;-64
2022/06/02 09:06:53;;;;;;;4.68;3.08;;;;;;;24.44;42.03;95079.69;5007789;28;20251;-65
2022/06/02 09:09:28;;;;;;;5.53;3.05;;;;;;;24.51;40.52;95075.00;5016399;28;20246;-68
2022/06/02 09:12:09;;;;;;;3.97;3.40;;;;;;;24.52;41.21;95075.81;5009674;28;20226;-69
2022/06/02 09:14:56;;;;;;;4.60;3.28;;;;;;;24.66;42.33;95082.56;5012784;28;20230;-65
2022/06/02 09:17:28;;;;;;;6.80;3.70;;;;;;;24.77;42.87;95080.88;5014501;28;20225;-67
2022/06/02 09:20:14;;;;;;;6.57;3.70;;;;;;;24.86;41.70;95071.41;5008451;28;20284;-64
2022/06/02 09:22:54;;;;;;;3.83;3.25;;;;;;;24.95;37.97;95069.94;5008776;28;20214;-67
2022/06/02 09:25:41;;;;;;;6.18;2.72;;;;;;;24.91;36.71;95071.47;5010709;28;20194;-67
2022/06/02 09:28:26;;;;;;;7.35;3.00;;;;;;;25.00;34.25;95061.16;5012291;28;20231;-65
2022/06/02 09:31:17;;;;;;;5.82;2.80;;;;;;;25.09;36.00;95067.78;5012969;28;20234;-65
2022/06/02 09:34:13;;;;;;;4.93;3.13;;;;;;;25.13;35.87;95066.25;5008257;28;20227;-69
2022/06/02 09:36:54;;;;;;;5.57;2.38;;;;;;;25.42;35.33;95058.13;5048299;28;20230;-65
2022/06/02 09:39:55;;;;;;;4.68;2.53;;;;;;;25.66;34.87;95074.97;5006505;28;20235;-63
2022/06/02 09:42:45;;;;;;;6.15;2.72;;;;;;;25.82;33.43;95060.69;5008612;28;20219;-69
2022/06/02 09:45:19;;;;;;;4.20;2.95;;;;;;;25.86;32.86;95064.53;5036660;28;20229;-68
2022/06/02 09:48:10;;;;;;;4.50;2.67;;;;;;;25.75;30.79;95062.72;5043544;28;20309;-68
2022/06/02 09:50:47;;;;;;;5.53;2.75;;;;;;;25.86;32.02;95059.16;5010534;28;20250;-68
2022/06/02 09:53:22;;;;;;;5.93;3.03;;;;;;;25.92;33.71;95057.34;5012096;28;20372;-65
2022/06/02 09:55:50;;;;;;;5.35;2.60;;;;;;;26.05;33.46;95059.72;5012753;28;20221;-65
2022/06/02 09:58:28;;;;;;;7.35;3.42;;;;;;;26.32;34.06;95056.31;5016667;28;20194;-63
2022/06/02 10:01:02;;;;;;;6.72;3.28;;;;;;;26.40;34.58;95056.69;5010811;28;20287;-62
2022/06/02 10:03:52;;;;;;;5.05;2.60;;;;;;;26.61;32.49;95048.88;4995937;28;20276;-64
2022/06/02 10:06:52;;;;;;;6.65;3.15;;;;;;;26.83;29.51;95046.97;5011420;28;20249;-65
2022/06/02 10:09:25;;;;;;;3.47;2.53;;;;;;;27.03;28.37;95037.50;5017571;28;20225;-68
2022/06/02 10:15:17;;;;;;;4.82;2.70;;;;;;;27.37;27.90;95040.81;5010404;28;20715;-66
2022/06/02 10:17:52;;;;;;;8.77;2.70;;;;;;;27.41;27.68;95043.81;5007562;28;20527;-67
2022/06/02 10:20:35;;;;;;;5.45;2.85;;;;;;;27.56;26.53;95041.25;5006731;28;20218;-65
2022/06/02 10:23:24;;;;;;;4.97;2.90;;;;;;;27.54;28.13;95040.69;5007982;28;20223;-69
2022/06/02 10:26:08;;;;;;;6.50;2.88;;;;;;;27.69;26.89;95038.13;4982530;28;20303;-67
2022/06/02 10:28:58;;;;;;;4.43;2.58;;;;;;;27.93;26.09;95033.19;4978865;28;20572;-70
2022/06/02 10:31:47;;;;;;;4.55;2.75;;;;;;;28.03;24.83;95037.81;4965132;28;20227;-68
2022/06/02 10:34:50;;;;;;;7.13;2.88;;;;;;;27.92;23.90;95030.72;4969254;28;20306;-68
2022/06/02 10:37:37;;;;;;;5.07;3.30;;;;;;;28.18;25.40;95034.41;4965597;28;20231;-66
2022/06/02 10:40:50;;;;;;;5.57;3.20;;;;;;;28.29;24.62;95029.88;4984269;28;20239;-65
2022/06/02 10:43:39;;;;;;;4.40;2.60;;;;;;;28.23;24.16;95026.31;4927422;29;20241;-69
2022/06/02 10:46:11;;;;;;;6.72;2.60;;;;;;;28.37;23.69;95015.84;4929507;29;20336;-68
2022/06/02 10:48:57;;;;;;;9.23;3.15;;;;;;;28.55;24.03;95018.13;4911668;29;20233;-63
2022/06/02 10:51:34;;;;;;;5.85;2.83;;;;;;;28.71;24.02;95013.56;4925878;29;20241;-65
2022/06/02 10:54:02;;;;;;;7.07;4.32;;;;;;;28.71;23.87;95013.56;4926813;29;20320;-64
2022/06/02 10:56:40;;;;;;;7.28;3.15;;;;;;;28.80;24.57;94997.63;4923105;29;20230;-66
2022/06/02 10:59:42;;;;;;;8.18;3.10;;;;;;;29.01;23.96;94998.50;4926000;29;20229;-63
2022/06/02 11:02:49;;;;;;;6.88;2.78;;;;;;;28.99;24.92;95001.47;4929247;29;20227;-67
2022/06/02 11:05:17;;;;;;;6.95;2.80;;;;;;;29.20;26.68;94999.63;4933753;29;20311;-67
2022/06/02 11:08:13;;;;;;;4.20;2.78;;;;;;;29.48;25.62;94996.66;4934495;29;20241;-69
2022/06/02 11:10:38;;;;;;;5.97;3.13;;;;;;;29.64;25.47;95003.72;4930874;29;20220;-63
2022/06/02 11:13:22;;;;;;;5.90;3.38;;;;;;;29.57;24.96;95001.28;4935586;29;20224;-68
2022/06/02 11:16:24;;;;;;;5.22;2.80;;;;;;;29.79;24.98;95001.00;4938004;29;20307;-64
2022/06/02 11:19:17;;;;;;;4.28;2.83;;;;;;;29.95;25.24;94998.28;4943507;28;20243;-69
2022/06/02 11:22:09;;;;;;;5.38;2.67;;;;;;;30.19;24.43;94996.59;4990977;28;20268;-65
2022/06/02 11:24:58;;;;;;;6.38;2.63;;;;;;;30.25;25.55;94995.50;5003912;28;20238;-66
2022/06/02 11:27:36;;;;;;;4.45;2.72;;;;;;;30.50;25.29;94997.34;5006898;28;20281;-65
2022/06/02 11:30:31;;;;;;;3.63;2.42;;;;;;;30.42;25.20;94994.34;4978836;28;20241;-69
2022/06/02 11:32:59;;;;;;;5.03;2.67;;;;;;;30.63;24.23;94992.38;5007540;28;20222;-66
2022/06/02 11:36:02;;;;;;;8.63;3.45;;;;;;;30.86;25.30;94996.38;5000294;28;20223;-69
2022/06/02 11:39:04;;;;;;;6.22;2.92;;;;;;;30.98;24.77;94999.53;5008069;28;20238;-68
2022/06/02 11:42:00;;;;;;;6.55;3.50;;;;;;;31.19;25.09;94998.34;4987672;28;20221;-69
2022/06/02 11:44:59;;;;;;;5.30;3.28;;;;;;;31.02;24.99;94989.75;5044649;28;20234;-64
2022/06/02 11:47:49;;;;;;;5.50;3.00;;;;;;;30.69;24.24;94994.81;5019801;28;20242;-64
2022/06/02 11:50:39;;;;;;;4.68;2.95;;;;;;;30.66;23.61;94989.94;5038094;28;20218;-67
2022/06/02 11:53:37;;;;;;;8.50;2.80;;;;;;;30.77;23.97;94985.25;5039766;28;20255;-65
2022/06/02 11:56:10;;;;;;;5.85;3.20;;;;;;;30.95;24.92;94976.50;5009469;28;20240;-65
2022/06/02 11:58:58;;;;;;;5.97;3.00;;;;;;;31.27;25.58;94977.09;5011831;28;20229;-69
2022/06/02 12:02:08;;;;;;;5.57;3.00;;;;;;;31.90;25.09;94976.31;4967692;28;20283;-69
2022/06/02 12:04:54;;;;;;;3.80;3.00;;;;;;;32.01;24.86;94978.66;4929017;29;20337;-68
2022/06/02 12:07:47;;;;;;;4.38;2.92;;;;;;;31.49;24.59;94977.50;4917105;29;20273;-67
2022/06/02 12:10:32;;;;;;;8.73;2.97;;;;;;;30.93;26.34;94973.25;4934106;29;20249;-70
2022/06/02 12:13:22;;;;;;;4.70;3.10;;;;;;;30.86;25.74;94966.50;4920395;29;20634;-65
2022/06/02 12:16:12;;;;;;;5.57;2.85;;;;;;;31.42;25.03;94971.56;4909418;29;20218;-66
2022/06/02 12:18:56;;;;;;;4.80;3.40;;;;;;;31.98;23.70;94973.00;4918132;29;20257;-66
2022/06/02 12:21:54;;;;;;;6.57;3.10;;;;;;;32.00;23.90;94968.09;4926721;29;20236;-65
2022/06/02 12:24:28;;;;;;;4.40;3.20;;;;;;;32.32;23.56;94970.16;4878891;29;20227;-70
2022/06/02 12:27:24;;;;;;;4.50;2.78;;;;;;;32.22;24.18;94970.28;4874378;29;20549;-66
2022/06/02 12:30:20;;;;;;;6.70;2.67;;;;;;;31.84;24.16;94972.84;4890666;29;20292;-66
2022/06/02 12:33:07;;;;;;;5.13;3.20;;;;;;;31.73;24.26;94974.00;4874977;29;20230;-70
2022/06/02 12:35:51;;;;;;;4.32;2.80;;;;;;;31.46;26.12;94969.88;4889240;29;20274;-71
2022/06/02 12:38:51;;;;;;;6.32;3.38;;;;;;;31.19;26.25;94975.78;4889354;29;20241;-69
2022/06/02 12:41:42;;;;;;;6.30;3.13;;;;;;;30.96;26.73;94971.88;4958661;28;20222;-69
2022/06/02 12:44:26;;;;;;;4.43;3.08;;;;;;;30.80;26.80;94973.03;4954749;28;20232;-64
2022/06/02 12:47:16;;;;;;;4.38;3.10;;;;;;;30.26;28.14;94970.03;4971861;28;20220;-66
2022/06/02 12:49:47;;;;;;;5.32;3.55;;;;;;;30.31;29.66;94972.72;4974668;28;20255;-63
2022/06/02 12:52:27;;;;;;;7.13;4.85;;;;;;;30.22;28.71;94973.53;4990027;28;20302;-63
2022/06/02 12:55:34;;;;;;;3.50;3.10;;;;;;;30.10;28.85;94974.66;4970282;28;20252;-64
2022/06/02 12:58:27;;;;;;;5.00;3.25;;;;;;;30.24;28.74;94966.78;4990527;28;20231;-66
2022/06/02 13:01:20;;;;;;;4.50;3.38;;;;;;;30.19;29.71;94963.22;5001716;28;20230;-66
2022/06/02 13:04:10;;;;;;;5.53;3.60;;;;;;;30.20;28.60;94959.44;5010105;28;20234;-67
2022/06/02 13:06:54;;;;;;;4.65;3.33;;;;;;;29.41;29.37;94969.84;5011943;28;20245;-64